»·PEaware :: ASA211 KPDX-KPSP

ASA211 :: KPDX-KPSP

FLIGHT INFORMATION

Flight Status: Arrived
Operator:
Alaska Airlines
More flights by this operator :: More flights under this callsign
Pilot: Jose A. (18565)
Aircraft: BOEING 737-800
(B738)
More flights by this aircraft type
Origin: KPDX Portland Intl
United States
Destination: KPSP Palm Springs Intl
United States
More flights between these airports :: More routes between these airports
Route: CASCD2 PAWLI Q11 PASKE OYVEY SIZLR3
File this flight plan on PilotEdge
Remarks:
Altitude:
(Current/Filed)
35,000ft
Speed:
(Current/Filed)
480kts
Departed: 24-Apr-19 11:06 AM
Arrived: 24-Apr-19 01:03 PM
Distance/Time
Traveled:
759nm/1:56
Distance/Time
To Go:
Arrived

Flight Plot

Page will automatically refresh every two minutes.


Map Options




Map Legend


Flown Route
Filed Route
Departure Airport
Arrival Airport
Navaid (VOR, NDB)
Fix

Horizontal Profiles

Position Reports

Time Latitude Longitude Heading Altitude Ground
Speed
24-Apr-19 10:37 45.587978 -122.595402 21 37ft 0kts
24-Apr-19 10:37 45.587978 -122.595402 21 37ft 0kts
24-Apr-19 10:39 45.587978 -122.595402 21 37ft 0kts
24-Apr-19 10:39 45.587978 -122.595402 21 37ft 0kts
24-Apr-19 10:40 45.587978 -122.595402 21 37ft 0kts
24-Apr-19 10:41 45.587978 -122.595402 21 37ft 0kts
24-Apr-19 10:43 45.587978 -122.595402 21 37ft 0kts
24-Apr-19 10:43 45.587978 -122.595402 21 37ft 0kts
24-Apr-19 10:44 45.587978 -122.595402 21 37ft 0kts
24-Apr-19 10:45 45.587978 -122.595402 21 37ft 0kts
24-Apr-19 10:46 45.587978 -122.595402 21 37ft 0kts
24-Apr-19 10:47 45.587978 -122.595402 21 37ft 0kts
24-Apr-19 10:48 45.587978 -122.595402 21 37ft 0kts
24-Apr-19 10:49 45.587978 -122.595402 21 37ft 0kts
24-Apr-19 10:50 45.587978 -122.595402 21 37ft 0kts
24-Apr-19 10:51 45.587978 -122.595402 21 37ft 0kts
24-Apr-19 10:52 45.587978 -122.595402 21 37ft 0kts
24-Apr-19 10:53 45.587978 -122.595402 21 37ft 0kts
24-Apr-19 10:54 45.587576 -122.595613 15 37ft 2kts
24-Apr-19 10:55 45.587084 -122.595388 299 37ft 2kts
24-Apr-19 10:56 45.587081 -122.595380 299 37ft 0kts
24-Apr-19 10:57 45.587081 -122.595380 299 37ft 0kts
24-Apr-19 10:58 45.587081 -122.595380 299 37ft 0kts
24-Apr-19 10:59 45.587081 -122.595380 299 37ft 0kts
24-Apr-19 11:00 45.588353 -122.598642 298 37ft 13kts
24-Apr-19 11:01 45.590667 -122.601162 32 37ft 14kts
24-Apr-19 11:02 45.593330 -122.597730 340 37ft 10kts
24-Apr-19 11:03 45.594316 -122.597671 43 37ft 0kts
24-Apr-19 11:04 45.594421 -122.594583 119 38ft 35kts
24-Apr-19 11:05 45.577580 -122.545661 105 971ft 174kts
24-Apr-19 11:06 45.566946 -122.466985 101 2628ft 242kts
24-Apr-19 11:07 45.548761 -122.367181 103 5477ft 270kts
24-Apr-19 11:08 45.499160 -122.284365 149 8286ft 297kts
24-Apr-19 11:09 45.417090 -122.253492 171 11014ft 316kts
24-Apr-19 11:10 45.321826 -122.227339 170 12264ft 383kts
24-Apr-19 11:11 45.231260 -122.201304 171 14269ft 402kts
24-Apr-19 11:12 45.122040 -122.169753 172 16787ft 416kts
24-Apr-19 11:13 45.009438 -122.118636 159 19105ft 438kts
24-Apr-19 11:14 44.897595 -122.042966 159 21157ft 453kts
24-Apr-19 11:15 44.781740 -121.965587 160 22941ft 466kts
24-Apr-19 11:16 44.662991 -121.886406 160 24581ft 478kts
24-Apr-19 11:17 44.541291 -121.805802 161 26053ft 488kts
24-Apr-19 11:18 44.417290 -121.724189 161 27300ft 498kts
24-Apr-19 11:19 44.290785 -121.641356 161 28597ft 503kts
24-Apr-19 11:20 44.164213 -121.558881 162 30110ft 501kts
24-Apr-19 11:21 44.038850 -121.477582 162 31608ft 496kts
24-Apr-19 11:22 43.914279 -121.397184 163 33090ft 490kts
24-Apr-19 11:23 43.813063 -121.332119 163 34164ft 487kts
24-Apr-19 11:24 43.690390 -121.253594 163 35265ft 487kts
24-Apr-19 11:25 43.567405 -121.175219 163 35285ft 483kts
24-Apr-19 11:26 43.445066 -121.097469 163 35274ft 484kts
24-Apr-19 11:27 43.322499 -121.020017 163 35268ft 484kts
24-Apr-19 11:28 43.200007 -120.944214 166 35263ft 479kts
24-Apr-19 11:29 43.073044 -120.903682 178 35259ft 466kts
24-Apr-19 11:30 42.945326 -120.873213 178 35256ft 466kts
24-Apr-19 11:31 42.817721 -120.842465 178 35253ft 466kts
24-Apr-19 11:32 42.689877 -120.811540 177 35251ft 466kts
24-Apr-19 11:33 42.562180 -120.780810 177 35250ft 466kts
24-Apr-19 11:34 42.434105 -120.750123 177 35249ft 467kts
24-Apr-19 11:35 42.306332 -120.719639 177 35249ft 467kts
24-Apr-19 11:36 42.178124 -120.689178 177 35249ft 467kts
24-Apr-19 11:37 42.050081 -120.658879 177 35247ft 467kts
24-Apr-19 11:38 41.922250 -120.628777 176 35245ft 466kts
24-Apr-19 11:39 41.794285 -120.598729 176 35242ft 466kts
24-Apr-19 11:40 41.666282 -120.568803 176 35240ft 466kts
24-Apr-19 11:41 41.538412 -120.539034 176 35240ft 466kts
24-Apr-19 11:42 41.410802 -120.509439 176 35240ft 465kts
24-Apr-19 11:43 41.283058 -120.479882 176 35238ft 465kts
24-Apr-19 11:44 41.155550 -120.450541 176 35235ft 465kts
24-Apr-19 11:45 41.027791 -120.421305 176 35229ft 464kts
24-Apr-19 11:46 40.901102 -120.384898 172 35219ft 467kts
24-Apr-19 11:47 40.774423 -120.345097 172 35211ft 467kts
24-Apr-19 11:48 40.647759 -120.305836 172 35206ft 467kts
24-Apr-19 11:49 40.521580 -120.266851 171 35203ft 467kts
24-Apr-19 11:50 40.394809 -120.227955 171 35202ft 467kts
24-Apr-19 11:51 40.268337 -120.189339 171 35205ft 467kts
24-Apr-19 11:52 40.142024 -120.150934 171 35208ft 466kts
24-Apr-19 11:53 40.015571 -120.112633 171 35212ft 466kts
24-Apr-19 11:54 39.888946 -120.074428 171 35226ft 466kts
24-Apr-19 11:55 39.762542 -120.036434 171 35231ft 466kts
24-Apr-19 11:56 39.635762 -119.998474 171 35233ft 466kts
24-Apr-19 11:57 39.509362 -119.960765 171 35232ft 467kts
24-Apr-19 11:58 39.382688 -119.923118 171 35237ft 467kts
24-Apr-19 11:59 39.255711 -119.885520 171 35239ft 467kts
24-Apr-19 12:00 39.128962 -119.848130 171 35225ft 467kts
24-Apr-19 12:01 39.002233 -119.810882 171 35233ft 467kts
24-Apr-19 12:02 38.875329 -119.773717 171 35246ft 467kts
24-Apr-19 12:03 38.748536 -119.736718 171 35240ft 467kts
24-Apr-19 12:04 38.621706 -119.699821 170 35212ft 467kts
24-Apr-19 12:05 38.495058 -119.663077 170 35209ft 466kts
24-Apr-19 12:06 38.368612 -119.626625 170 35208ft 466kts
24-Apr-19 12:07 38.242179 -119.590513 171 35208ft 466kts
24-Apr-19 12:08 38.115332 -119.554598 171 35229ft 466kts
24-Apr-19 12:09 37.988848 -119.518918 171 35220ft 466kts
24-Apr-19 12:10 37.862340 -119.483154 170 35206ft 466kts
24-Apr-19 12:11 37.735549 -119.447501 170 35221ft 466kts
24-Apr-19 12:12 37.609168 -119.412115 170 35230ft 467kts
24-Apr-19 12:13 37.481896 -119.376614 170 35220ft 467kts
24-Apr-19 12:14 37.355132 -119.341380 170 35203ft 467kts
24-Apr-19 12:15 37.227998 -119.306164 170 35169ft 468kts
24-Apr-19 12:16 37.100865 -119.271072 170 35137ft 468kts
24-Apr-19 12:17 36.973277 -119.235973 170 35108ft 469kts
24-Apr-19 12:18 36.845879 -119.201048 170 35085ft 469kts
24-Apr-19 12:19 36.718492 -119.166242 170 35071ft 469kts
24-Apr-19 12:20 36.591034 -119.131536 170 35059ft 469kts
24-Apr-19 12:21 36.463472 -119.096915 170 35049ft 469kts
24-Apr-19 12:22 36.335879 -119.062333 170 35049ft 469kts
24-Apr-19 12:23 36.208235 -119.027962 170 35051ft 469kts
24-Apr-19 12:24 36.084847 -118.995325 170 35051ft 469kts
24-Apr-19 12:25 35.960073 -118.963400 170 35050ft 470kts
24-Apr-19 12:27 35.831653 -118.930643 170 35049ft 470kts
24-Apr-19 12:28 35.702904 -118.903228 173 35049ft 470kts
24-Apr-19 12:29 35.573899 -118.877982 172 35044ft 470kts
24-Apr-19 12:30 35.444650 -118.851980 169 35042ft 471kts
24-Apr-19 12:31 35.326742 -118.782248 146 35066ft 476kts
24-Apr-19 12:32 35.216718 -118.691266 147 34696ft 477kts
24-Apr-19 12:33 35.106515 -118.601255 147 33700ft 479kts
24-Apr-19 12:34 34.995344 -118.510423 147 32700ft 482kts
24-Apr-19 12:35 34.883409 -118.419464 147 31699ft 485kts
24-Apr-19 12:36 34.790564 -118.339995 139 29496ft 485kts
24-Apr-19 12:37 34.709282 -118.226171 127 26984ft 475kts
24-Apr-19 12:38 34.643104 -118.123187 128 25010ft 461kts
24-Apr-19 12:39 34.569171 -118.000240 118 22857ft 438kts
24-Apr-19 12:40 34.515090 -117.867846 115 21689ft 438kts
24-Apr-19 12:41 34.461486 -117.737311 115 20534ft 429kts
24-Apr-19 12:42 34.409034 -117.608677 115 19397ft 421kts
24-Apr-19 12:43 34.360924 -117.491359 115 18375ft 415kts
24-Apr-19 12:43 34.318403 -117.388110 115 17445ft 410kts
24-Apr-19 12:45 34.255753 -117.248066 118 16200ft 401kts
24-Apr-19 12:46 34.200925 -117.130821 118 16161ft 401kts
24-Apr-19 12:47 34.145767 -117.013741 118 16194ft 401kts
24-Apr-19 12:47 34.100157 -116.916670 118 15892ft 385kts
24-Apr-19 12:49 34.044593 -116.797943 118 14495ft 329kts
24-Apr-19 12:50 34.013426 -116.699999 105 13191ft 306kts
24-Apr-19 12:50 33.991856 -116.618170 106 12062ft 306kts
24-Apr-19 12:51 33.956154 -116.526051 132 10732ft 308kts
24-Apr-19 12:52 33.894043 -116.457066 136 9536ft 302kts
24-Apr-19 12:53 33.847600 -116.378643 115 8954ft 265kts
24-Apr-19 12:54 33.816474 -116.303564 116 8033ft 242kts
24-Apr-19 12:55 33.773995 -116.264401 207 7246ft 212kts
24-Apr-19 12:56 33.730527 -116.309486 222 6203ft 191kts
24-Apr-19 12:57 33.690521 -116.349853 221 4753ft 185kts
24-Apr-19 12:58 33.703903 -116.395116 322 3411ft 165kts
24-Apr-19 12:59 33.739786 -116.424751 322 2545ft 153kts
24-Apr-19 13:00 33.773346 -116.455772 322 1746ft 150kts
24-Apr-19 13:01 33.804421 -116.485349 324 985ft 143kts
24-Apr-19 13:02 33.832191 -116.509956 322 485ft 32kts
24-Apr-19 13:03 33.832932 -116.511849 199 485ft 0kts
24-Apr-19 13:04 33.830924 -116.510922 143 485ft 17kts
24-Apr-19 13:05 33.826134 -116.506569 142 485ft 13kts
24-Apr-19 13:06 33.823561 -116.505563 235 485ft 6kts
24-Apr-19 13:07 33.823429 -116.505872 244 485ft 0kts
24-Apr-19 13:08 33.823429 -116.505872 244 485ft 0kts
24-Apr-19 13:09 33.823429 -116.505872 244 485ft 0kts
24-Apr-19 13:10 33.823429 -116.505872 244 485ft 0kts

Navigation Log

Ident Type
Flight plan parsing failed, navigation log unavailable